sensor_id;sensor_type;location;lat;lon;timestamp;P1;durP1;ratioP1;P2;durP2;ratioP2
215;SDS011;64590;48.81286795;9.14184224;2023-03-01T00:02:12;40.72;;;19.58;;
215;SDS011;64590;48.81286795;9.14184224;2023-03-01T00:04:39;39.92;;;19.85;;
215;SDS011;64590;48.81286795;9.14184224;2023-03-01T00:07:06;44.78;;;20.92;;
215;SDS011;64590;48.81286795;9.14184224;2023-03-01T00:09:32;44.65;;;20.00;;
215;SDS011;64590;48.81286795;9.14184224;2023-03-01T00:11:59;45.88;;;20.25;;
215;SDS011;64590;48.81286795;9.14184224;2023-03-01T00:14:25;45.97;;;20.33;;
215;SDS011;64590;48.81286795;9.14184224;2023-03-01T00:16:52;41.45;;;19.13;;
215;SDS011;64590;48.81286795;9.14184224;2023-03-01T00:19:20;43.58;;;21.10;;
215;SDS011;64590;48.81286795;9.14184224;2023-03-01T00:21:47;40.95;;;19.23;;
215;SDS011;64590;48.81286795;9.14184224;2023-03-01T00:24:14;39.10;;;18.48;;
215;SDS011;64590;48.81286795;9.14184224;2023-03-01T00:26:41;39.70;;;18.45;;
215;SDS011;64590;48.81286795;9.14184224;2023-03-01T00:29:08;39.83;;;18.50;;
215;SDS011;64590;48.81286795;9.14184224;2023-03-01T00:31:35;39.22;;;18.65;;
215;SDS011;64590;48.81286795;9.14184224;2023-03-01T00:34:03;36.53;;;17.70;;
215;SDS011;64590;48.81286795;9.14184224;2023-03-01T00:36:32;38.30;;;17.98;;
215;SDS011;64590;48.81286795;9.14184224;2023-03-01T00:39:01;39.95;;;18.25;;
215;SDS011;64590;48.81286795;9.14184224;2023-03-01T00:41:29;40.08;;;19.35;;
215;SDS011;64590;48.81286795;9.14184224;2023-03-01T00:43:56;43.28;;;19.50;;
215;SDS011;64590;48.81286795;9.14184224;2023-03-01T00:46:23;38.92;;;19.15;;
215;SDS011;64590;48.81286795;9.14184224;2023-03-01T00:48:51;44.65;;;20.83;;
215;SDS011;64590;48.81286795;9.14184224;2023-03-01T00:51:20;44.47;;;19.73;;
215;SDS011;64590;48.81286795;9.14184224;2023-03-01T00:53:51;41.95;;;19.92;;
215;SDS011;64590;48.81286795;9.14184224;2023-03-01T00:56:18;41.13;;;19.65;;
215;SDS011;64590;48.81286795;9.14184224;2023-03-01T00:58:45;46.85;;;20.27;;
215;SDS011;64590;48.81286795;9.14184224;2023-03-01T01:01:13;41.33;;;19.15;;
215;SDS011;64590;48.81286795;9.14184224;2023-03-01T01:03:43;39.35;;;19.23;;
215;SDS011;64590;48.81286795;9.14184224;2023-03-01T01:06:15;43.13;;;19.92;;
215;SDS011;64590;48.81286795;9.14184224;2023-03-01T01:08:43;43.13;;;19.52;;
215;SDS011;64590;48.81286795;9.14184224;2023-03-01T01:11:12;41.45;;;19.13;;
215;SDS011;64590;48.81286795;9.14184224;2023-03-01T01:13:39;41.85;;;18.35;;
215;SDS011;64590;48.81286795;9.14184224;2023-03-01T01:16:07;37.10;;;18.33;;
215;SDS011;64590;48.81286795;9.14184224;2023-03-01T01:18:33;36.30;;;17.50;;
215;SDS011;64590;48.81286795;9.14184224;2023-03-01T01:21:03;37.72;;;18.30;;
215;SDS011;64590;48.81286795;9.14184224;2023-03-01T01:23:30;40.20;;;18.45;;
215;SDS011;64590;48.81286795;9.14184224;2023-03-01T01:25:57;39.65;;;18.60;;
215;SDS011;64590;48.81286795;9.14184224;2023-03-01T01:28:25;41.25;;;18.65;;
215;SDS011;64590;48.81286795;9.14184224;2023-03-01T01:30:51;41.47;;;19.30;;
215;SDS011;64590;48.81286795;9.14184224;2023-03-01T01:33:18;40.25;;;18.83;;
215;SDS011;64590;48.81286795;9.14184224;2023-03-01T01:35:45;40.40;;;19.38;;
215;SDS011;64590;48.81286795;9.14184224;2023-03-01T01:38:11;40.90;;;18.85;;
215;SDS011;64590;48.81286795;9.14184224;2023-03-01T01:40:42;40.40;;;18.70;;
215;SDS011;64590;48.81286795;9.14184224;2023-03-01T01:43:12;43.55;;;17.90;;
215;SDS011;64590;48.81286795;9.14184224;2023-03-01T01:45:46;33.92;;;17.23;;
215;SDS011;64590;48.81286795;9.14184224;2023-03-01T01:48:14;39.90;;;19.35;;
215;SDS011;64590;48.81286795;9.14184224;2023-03-01T01:50:44;38.40;;;17.70;;
215;SDS011;64590;48.81286795;9.14184224;2023-03-01T01:53:14;42.55;;;19.48;;
215;SDS011;64590;48.81286795;9.14184224;2023-03-01T01:55:45;42.20;;;19.75;;
215;SDS011;64590;48.81286795;9.14184224;2023-03-01T01:58:14;44.30;;;20.20;;
215;SDS011;64590;48.81286795;9.14184224;2023-03-01T02:00:44;46.17;;;20.33;;
215;SDS011;64590;48.81286795;9.14184224;2023-03-01T02:03:12;42.90;;;20.75;;
215;SDS011;64590;48.81286795;9.14184224;2023-03-01T02:05:44;47.63;;;20.45;;
215;SDS011;64590;48.81286795;9.14184224;2023-03-01T02:08:16;41.92;;;19.67;;
215;SDS011;64590;48.81286795;9.14184224;2023-03-01T02:10:45;47.40;;;21.55;;
215;SDS011;64590;48.81286795;9.14184224;2023-03-01T02:13:14;46.00;;;20.73;;
215;SDS011;64590;48.81286795;9.14184224;2023-03-01T02:15:40;44.53;;;20.60;;
215;SDS011;64590;48.81286795;9.14184224;2023-03-01T02:18:09;46.17;;;20.80;;
215;SDS011;64590;48.81286795;9.14184224;2023-03-01T02:20:40;45.65;;;20.73;;
215;SDS011;64590;48.81286795;9.14184224;2023-03-01T02:23:16;43.55;;;20.55;;
215;SDS011;64590;48.81286795;9.14184224;2023-03-01T02:25:46;46.63;;;20.23;;
215;SDS011;64590;48.81286795;9.14184224;2023-03-01T02:28:24;41.38;;;20.20;;
215;SDS011;64590;48.81286795;9.14184224;2023-03-01T02:30:52;42.70;;;20.52;;
215;SDS011;64590;48.81286795;9.14184224;2023-03-01T02:33:38;52.33;;;21.55;;
215;SDS011;64590;48.81286795;9.14184224;2023-03-01T02:36:06;44.47;;;20.10;;
215;SDS011;64590;48.81286795;9.14184224;2023-03-01T02:38:38;44.47;;;20.58;;
215;SDS011;64590;48.81286795;9.14184224;2023-03-01T02:41:05;46.10;;;20.23;;
215;SDS011;64590;48.81286795;9.14184224;2023-03-01T02:43:35;43.30;;;20.58;;
215;SDS011;64590;48.81286795;9.14184224;2023-03-01T02:46:04;41.53;;;20.35;;
215;SDS011;64590;48.81286795;9.14184224;2023-03-01T02:48:39;42.03;;;19.40;;
215;SDS011;64590;48.81286795;9.14184224;2023-03-01T02:51:09;44.78;;;20.10;;
215;SDS011;64590;48.81286795;9.14184224;2023-03-01T02:53:47;53.10;;;20.52;;
215;SDS011;64590;48.81286795;9.14184224;2023-03-01T02:56:19;43.83;;;20.95;;
215;SDS011;64590;48.81286795;9.14184224;2023-03-01T02:58:47;43.97;;;20.42;;
215;SDS011;64590;48.81286795;9.14184224;2023-03-01T03:01:17;41.63;;;19.88;;
215;SDS011;64590;48.81286795;9.14184224;2023-03-01T03:03:44;45.15;;;21.85;;
215;SDS011;64590;48.81286795;9.14184224;2023-03-01T03:06:11;42.67;;;20.15;;
215;SDS011;64590;48.81286795;9.14184224;2023-03-01T03:08:38;45.75;;;20.95;;
215;SDS011;64590;48.81286795;9.14184224;2023-03-01T03:11:05;38.17;;;19.23;;
215;SDS011;64590;48.81286795;9.14184224;2023-03-01T03:13:31;41.45;;;20.48;;
215;SDS011;64590;48.81286795;9.14184224;2023-03-01T03:16:01;46.08;;;20.17;;
215;SDS011;64590;48.81286795;9.14184224;2023-03-01T03:18:29;41.70;;;19.95;;
215;SDS011;64590;48.81286795;9.14184224;2023-03-01T03:20:56;45.58;;;20.25;;
215;SDS011;64590;48.81286795;9.14184224;2023-03-01T03:23:23;40.78;;;19.45;;
215;SDS011;64590;48.81286795;9.14184224;2023-03-01T03:25:50;42.75;;;20.55;;
215;SDS011;64590;48.81286795;9.14184224;2023-03-01T03:28:17;41.50;;;20.20;;
215;SDS011;64590;48.81286795;9.14184224;2023-03-01T03:30:44;43.55;;;21.05;;
215;SDS011;64590;48.81286795;9.14184224;2023-03-01T03:33:13;44.95;;;20.48;;
215;SDS011;64590;48.81286795;9.14184224;2023-03-01T03:35:41;42.53;;;19.85;;
215;SDS011;64590;48.81286795;9.14184224;2023-03-01T03:38:09;41.95;;;20.13;;
215;SDS011;64590;48.81286795;9.14184224;2023-03-01T03:40:41;48.78;;;21.27;;
215;SDS011;64590;48.81286795;9.14184224;2023-03-01T03:43:10;43.10;;;20.48;;
215;SDS011;64590;48.81286795;9.14184224;2023-03-01T03:45:38;40.90;;;19.77;;
215;SDS011;64590;48.81286795;9.14184224;2023-03-01T03:48:05;41.83;;;19.40;;
215;SDS011;64590;48.81286795;9.14184224;2023-03-01T03:50:37;44.20;;;20.55;;
215;SDS011;64590;48.81286795;9.14184224;2023-03-01T03:53:04;44.28;;;20.67;;
215;SDS011;64590;48.81286795;9.14184224;2023-03-01T03:55:33;44.05;;;20.20;;
215;SDS011;64590;48.81286795;9.14184224;2023-03-01T03:58:05;40.53;;;19.05;;
215;SDS011;64590;48.81286795;9.14184224;2023-03-01T04:00:33;43.55;;;20.83;;
215;SDS011;64590;48.81286795;9.14184224;2023-03-01T04:03:01;42.88;;;20.52;;
215;SDS011;64590;48.81286795;9.14184224;2023-03-01T04:05:27;39.65;;;19.80;;
215;SDS011;64590;48.81286795;9.14184224;2023-03-01T04:07:56;41.78;;;19.95;;
215;SDS011;64590;48.81286795;9.14184224;2023-03-01T04:10:33;40.58;;;19.77;;
215;SDS011;64590;48.81286795;9.14184224;2023-03-01T04:13:02;45.72;;;20.75;;
215;SDS011;64590;48.81286795;9.14184224;2023-03-01T04:15:30;43.70;;;20.40;;
215;SDS011;64590;48.81286795;9.14184224;2023-03-01T04:17:58;45.15;;;19.70;;
215;SDS011;64590;48.81286795;9.14184224;2023-03-01T04:20:26;43.58;;;20.80;;
215;SDS011;64590;48.81286795;9.14184224;2023-03-01T04:22:57;44.58;;;21.33;;
215;SDS011;64590;48.81286795;9.14184224;2023-03-01T04:25:25;45.88;;;21.17;;
215;SDS011;64590;48.81286795;9.14184224;2023-03-01T04:27:52;42.40;;;19.98;;
215;SDS011;64590;48.81286795;9.14184224;2023-03-01T04:30:19;46.38;;;21.15;;
215;SDS011;64590;48.81286795;9.14184224;2023-03-01T04:32:45;44.25;;;20.92;;
215;SDS011;64590;48.81286795;9.14184224;2023-03-01T04:35:12;45.95;;;21.63;;
215;SDS011;64590;48.81286795;9.14184224;2023-03-01T04:37:38;41.45;;;20.23;;
215;SDS011;64590;48.81286795;9.14184224;2023-03-01T04:40:09;45.67;;;20.00;;
215;SDS011;64590;48.81286795;9.14184224;2023-03-01T04:42:41;43.67;;;20.42;;
215;SDS011;64590;48.81286795;9.14184224;2023-03-01T04:45:08;41.03;;;20.05;;
215;SDS011;64590;48.81286795;9.14184224;2023-03-01T04:47:38;40.60;;;20.63;;
215;SDS011;64590;48.81286795;9.14184224;2023-03-01T04:50:06;44.00;;;21.45;;
215;SDS011;64590;48.81286795;9.14184224;2023-03-01T04:52:34;41.15;;;20.35;;
215;SDS011;64590;48.81286795;9.14184224;2023-03-01T04:55:00;40.95;;;19.75;;
215;SDS011;64590;48.81286795;9.14184224;2023-03-01T04:57:30;41.03;;;20.48;;
215;SDS011;64590;48.81286795;9.14184224;2023-03-01T04:59:57;41.15;;;19.92;;
215;SDS011;64590;48.81286795;9.14184224;2023-03-01T05:02:23;39.70;;;19.70;;
215;SDS011;64590;48.81286795;9.14184224;2023-03-01T05:04:50;46.13;;;20.40;;
215;SDS011;64590;48.81286795;9.14184224;2023-03-01T05:07:17;42.17;;;20.33;;
215;SDS011;64590;48.81286795;9.14184224;2023-03-01T05:09:44;44.67;;;21.20;;
215;SDS011;64590;48.81286795;9.14184224;2023-03-01T05:12:11;43.03;;;20.98;;
215;SDS011;64590;48.81286795;9.14184224;2023-03-01T05:14:39;41.67;;;20.75;;
215;SDS011;64590;48.81286795;9.14184224;2023-03-01T05:17:06;44.33;;;21.48;;
215;SDS011;64590;48.81286795;9.14184224;2023-03-01T05:19:33;44.88;;;21.40;;
215;SDS011;64590;48.81286795;9.14184224;2023-03-01T05:22:00;42.28;;;20.60;;
215;SDS011;64590;48.81286795;9.14184224;2023-03-01T05:24:31;42.90;;;20.60;;
215;SDS011;64590;48.81286795;9.14184224;2023-03-01T05:27:00;43.17;;;21.40;;
215;SDS011;64590;48.81286795;9.14184224;2023-03-01T05:29:27;48.33;;;21.83;;
215;SDS011;64590;48.81286795;9.14184224;2023-03-01T05:31:56;43.05;;;21.15;;
215;SDS011;64590;48.81286795;9.14184224;2023-03-01T05:34:24;41.80;;;20.35;;
215;SDS011;64590;48.81286795;9.14184224;2023-03-01T05:36:52;44.35;;;20.92;;
215;SDS011;64590;48.81286795;9.14184224;2023-03-01T05:39:20;43.55;;;21.60;;
215;SDS011;64590;48.81286795;9.14184224;2023-03-01T05:41:47;42.92;;;21.00;;
215;SDS011;64590;48.81286795;9.14184224;2023-03-01T05:44:14;42.08;;;19.95;;
215;SDS011;64590;48.81286795;9.14184224;2023-03-01T05:46:41;42.58;;;21.17;;
215;SDS011;64590;48.81286795;9.14184224;2023-03-01T05:49:09;43.55;;;20.55;;
215;SDS011;64590;48.81286795;9.14184224;2023-03-01T05:51:35;43.85;;;21.38;;
215;SDS011;64590;48.81286795;9.14184224;2023-03-01T05:54:02;44.13;;;21.30;;
215;SDS011;64590;48.81286795;9.14184224;2023-03-01T05:56:32;43.75;;;20.85;;
215;SDS011;64590;48.81286795;9.14184224;2023-03-01T05:58:58;45.38;;;21.63;;
215;SDS011;64590;48.81286795;9.14184224;2023-03-01T06:01:25;47.08;;;20.98;;
215;SDS011;64590;48.81286795;9.14184224;2023-03-01T06:03:51;46.95;;;21.45;;
215;SDS011;64590;48.81286795;9.14184224;2023-03-01T06:06:19;43.00;;;20.90;;
215;SDS011;64590;48.81286795;9.14184224;2023-03-01T06:08:46;47.63;;;22.05;;
215;SDS011;64590;48.81286795;9.14184224;2023-03-01T06:11:13;45.47;;;21.75;;
215;SDS011;64590;48.81286795;9.14184224;2023-03-01T06:13:40;46.22;;;21.80;;
215;SDS011;64590;48.81286795;9.14184224;2023-03-01T06:16:07;43.70;;;20.95;;
215;SDS011;64590;48.81286795;9.14184224;2023-03-01T06:18:34;48.30;;;22.42;;
215;SDS011;64590;48.81286795;9.14184224;2023-03-01T06:21:01;48.10;;;22.40;;
215;SDS011;64590;48.81286795;9.14184224;2023-03-01T06:23:30;46.92;;;22.25;;
215;SDS011;64590;48.81286795;9.14184224;2023-03-01T06:25:57;44.75;;;21.52;;
215;SDS011;64590;48.81286795;9.14184224;2023-03-01T06:28:23;48.00;;;22.30;;
215;SDS011;64590;48.81286795;9.14184224;2023-03-01T06:30:50;45.30;;;21.48;;
215;SDS011;64590;48.81286795;9.14184224;2023-03-01T06:33:17;48.10;;;21.88;;
215;SDS011;64590;48.81286795;9.14184224;2023-03-01T06:35:45;44.08;;;20.90;;
215;SDS011;64590;48.81286795;9.14184224;2023-03-01T06:38:11;47.40;;;21.90;;
215;SDS011;64590;48.81286795;9.14184224;2023-03-01T06:40:41;47.85;;;21.20;;
215;SDS011;64590;48.81286795;9.14184224;2023-03-01T06:43:07;53.78;;;22.20;;
215;SDS011;64590;48.81286795;9.14184224;2023-03-01T06:45:34;47.85;;;21.25;;
215;SDS011;64590;48.81286795;9.14184224;2023-03-01T06:48:01;51.30;;;21.52;;
215;SDS011;64590;48.81286795;9.14184224;2023-03-01T06:50:29;48.03;;;21.90;;
215;SDS011;64590;48.81286795;9.14184224;2023-03-01T06:52:56;45.15;;;21.70;;
215;SDS011;64590;48.81286795;9.14184224;2023-03-01T06:55:22;43.65;;;21.63;;
215;SDS011;64590;48.81286795;9.14184224;2023-03-01T06:57:54;42.47;;;20.70;;
215;SDS011;64590;48.81286795;9.14184224;2023-03-01T07:00:21;50.67;;;22.10;;
215;SDS011;64590;48.81286795;9.14184224;2023-03-01T07:02:48;47.42;;;22.60;;
215;SDS011;64590;48.81286795;9.14184224;2023-03-01T07:05:15;46.35;;;22.08;;
215;SDS011;64590;48.81286795;9.14184224;2023-03-01T07:07:42;54.22;;;21.90;;
215;SDS011;64590;48.81286795;9.14184224;2023-03-01T07:10:09;45.47;;;21.40;;
215;SDS011;64590;48.81286795;9.14184224;2023-03-01T07:12:36;53.28;;;21.38;;
215;SDS011;64590;48.81286795;9.14184224;2023-03-01T07:15:05;45.00;;;21.45;;
215;SDS011;64590;48.81286795;9.14184224;2023-03-01T07:17:34;46.22;;;22.00;;
215;SDS011;64590;48.81286795;9.14184224;2023-03-01T07:20:01;47.97;;;22.35;;
215;SDS011;64590;48.81286795;9.14184224;2023-03-01T07:22:27;51.30;;;22.30;;
215;SDS011;64590;48.81286795;9.14184224;2023-03-01T07:24:54;47.00;;;21.20;;
215;SDS011;64590;48.81286795;9.14184224;2023-03-01T07:27:20;47.13;;;21.48;;
215;SDS011;64590;48.81286795;9.14184224;2023-03-01T07:29:47;45.58;;;21.45;;
215;SDS011;64590;48.81286795;9.14184224;2023-03-01T07:32:15;49.83;;;22.10;;
215;SDS011;64590;48.81286795;9.14184224;2023-03-01T07:34:41;46.95;;;21.85;;
215;SDS011;64590;48.81286795;9.14184224;2023-03-01T07:37:08;46.63;;;22.48;;
215;SDS011;64590;48.81286795;9.14184224;2023-03-01T07:39:34;52.30;;;22.75;;
215;SDS011;64590;48.81286795;9.14184224;2023-03-01T07:42:01;48.85;;;23.38;;
215;SDS011;64590;48.81286795;9.14184224;2023-03-01T07:44:27;48.50;;;22.50;;
215;SDS011;64590;48.81286795;9.14184224;2023-03-01T07:46:54;53.22;;;22.83;;
215;SDS011;64590;48.81286795;9.14184224;2023-03-01T07:49:24;51.22;;;22.60;;
215;SDS011;64590;48.81286795;9.14184224;2023-03-01T07:51:52;50.83;;;22.73;;
215;SDS011;64590;48.81286795;9.14184224;2023-03-01T07:54:19;49.92;;;22.20;;
215;SDS011;64590;48.81286795;9.14184224;2023-03-01T07:56:45;51.72;;;23.33;;
215;SDS011;64590;48.81286795;9.14184224;2023-03-01T07:59:12;57.63;;;23.35;;
215;SDS011;64590;48.81286795;9.14184224;2023-03-01T08:01:38;47.17;;;22.33;;
215;SDS011;64590;48.81286795;9.14184224;2023-03-01T08:04:05;48.45;;;22.55;;
215;SDS011;64590;48.81286795;9.14184224;2023-03-01T08:06:35;50.90;;;22.60;;
215;SDS011;64590;48.81286795;9.14184224;2023-03-01T08:09:02;47.13;;;23.73;;
215;SDS011;64590;48.81286795;9.14184224;2023-03-01T08:11:29;53.63;;;23.38;;
215;SDS011;64590;48.81286795;9.14184224;2023-03-01T08:13:55;50.45;;;22.40;;
215;SDS011;64590;48.81286795;9.14184224;2023-03-01T08:16:22;51.80;;;22.92;;
215;SDS011;64590;48.81286795;9.14184224;2023-03-01T08:18:49;49.65;;;23.10;;
215;SDS011;64590;48.81286795;9.14184224;2023-03-01T08:21:16;48.00;;;21.80;;
215;SDS011;64590;48.81286795;9.14184224;2023-03-01T08:23:45;51.20;;;22.58;;
215;SDS011;64590;48.81286795;9.14184224;2023-03-01T08:26:12;52.58;;;23.23;;
215;SDS011;64590;48.81286795;9.14184224;2023-03-01T08:28:41;49.55;;;23.20;;
215;SDS011;64590;48.81286795;9.14184224;2023-03-01T08:31:14;47.83;;;23.10;;
215;SDS011;64590;48.81286795;9.14184224;2023-03-01T08:33:42;54.75;;;22.75;;
215;SDS011;64590;48.81286795;9.14184224;2023-03-01T08:36:08;44.88;;;21.63;;
215;SDS011;64590;48.81286795;9.14184224;2023-03-01T08:38:35;49.60;;;22.48;;
215;SDS011;64590;48.81286795;9.14184224;2023-03-01T08:41:03;44.90;;;21.13;;
215;SDS011;64590;48.81286795;9.14184224;2023-03-01T08:43:30;45.90;;;22.02;;
215;SDS011;64590;48.81286795;9.14184224;2023-03-01T08:45:57;47.78;;;21.98;;
215;SDS011;64590;48.81286795;9.14184224;2023-03-01T08:48:23;49.10;;;23.38;;
215;SDS011;64590;48.81286795;9.14184224;2023-03-01T08:50:50;50.65;;;23.25;;
215;SDS011;64590;48.81286795;9.14184224;2023-03-01T08:53:17;47.00;;;26.00;;
215;SDS011;64590;48.81286795;9.14184224;2023-03-01T08:55:43;46.33;;;24.10;;
215;SDS011;64590;48.81286795;9.14184224;2023-03-01T08:58:11;47.25;;;23.40;;
215;SDS011;64590;48.81286795;9.14184224;2023-03-01T09:00:38;52.42;;;23.52;;
215;SDS011;64590;48.81286795;9.14184224;2023-03-01T09:03:05;50.42;;;22.70;;
215;SDS011;64590;48.81286795;9.14184224;2023-03-01T09:05:32;46.15;;;21.90;;
215;SDS011;64590;48.81286795;9.14184224;2023-03-01T09:07:59;52.65;;;22.98;;
215;SDS011;64590;48.81286795;9.14184224;2023-03-01T09:10:26;47.72;;;21.63;;
215;SDS011;64590;48.81286795;9.14184224;2023-03-01T09:12:52;46.15;;;21.90;;
215;SDS011;64590;48.81286795;9.14184224;2023-03-01T09:15:20;46.03;;;22.98;;
215;SDS011;64590;48.81286795;9.14184224;2023-03-01T09:17:46;47.08;;;22.50;;
215;SDS011;64590;48.81286795;9.14184224;2023-03-01T09:20:13;46.08;;;21.55;;
215;SDS011;64590;48.81286795;9.14184224;2023-03-01T09:22:40;51.15;;;24.13;;
215;SDS011;64590;48.81286795;9.14184224;2023-03-01T09:25:06;49.58;;;23.45;;
215;SDS011;64590;48.81286795;9.14184224;2023-03-01T09:27:33;48.60;;;23.25;;
215;SDS011;64590;48.81286795;9.14184224;2023-03-01T09:30:00;50.30;;;22.48;;
215;SDS011;64590;48.81286795;9.14184224;2023-03-01T09:32:28;51.97;;;22.88;;
215;SDS011;64590;48.81286795;9.14184224;2023-03-01T09:34:56;48.25;;;22.83;;
215;SDS011;64590;48.81286795;9.14184224;2023-03-01T09:37:32;54.88;;;23.10;;
215;SDS011;64590;48.81286795;9.14184224;2023-03-01T09:39:59;48.65;;;23.15;;
215;SDS011;64590;48.81286795;9.14184224;2023-03-01T09:42:26;49.42;;;22.60;;
215;SDS011;64590;48.81286795;9.14184224;2023-03-01T09:44:57;47.58;;;21.75;;
215;SDS011;64590;48.81286795;9.14184224;2023-03-01T09:47:29;46.13;;;21.60;;
215;SDS011;64590;48.81286795;9.14184224;2023-03-01T09:50:01;49.67;;;22.20;;
215;SDS011;64590;48.81286795;9.14184224;2023-03-01T09:52:34;46.75;;;22.48;;
215;SDS011;64590;48.81286795;9.14184224;2023-03-01T09:55:08;46.90;;;22.58;;
215;SDS011;64590;48.81286795;9.14184224;2023-03-01T09:57:38;45.08;;;22.05;;
215;SDS011;64590;48.81286795;9.14184224;2023-03-01T10:03:06;46.63;;;22.77;;
215;SDS011;64590;48.81286795;9.14184224;2023-03-01T10:05:44;53.90;;;23.50;;
215;SDS011;64590;48.81286795;9.14184224;2023-03-01T10:11:14;47.15;;;22.77;;
215;SDS011;64590;48.81286795;9.14184224;2023-03-01T10:13:46;44.88;;;22.40;;
215;SDS011;64590;48.81286795;9.14184224;2023-03-01T10:16:19;48.08;;;22.90;;
215;SDS011;64590;48.81286795;9.14184224;2023-03-01T10:18:51;49.53;;;22.50;;
215;SDS011;64590;48.81286795;9.14184224;2023-03-01T10:21:21;46.88;;;22.75;;
215;SDS011;64590;48.81286795;9.14184224;2023-03-01T10:23:49;49.08;;;23.05;;
215;SDS011;64590;48.81286795;9.14184224;2023-03-01T10:26:24;46.10;;;22.35;;
215;SDS011;64590;48.81286795;9.14184224;2023-03-01T10:29:00;46.63;;;23.65;;
215;SDS011;64590;48.81286795;9.14184224;2023-03-01T10:31:33;52.42;;;22.98;;
215;SDS011;64590;48.81286795;9.14184224;2023-03-01T10:34:08;51.53;;;24.10;;
215;SDS011;64590;48.81286795;9.14184224;2023-03-01T10:36:37;48.28;;;23.00;;
215;SDS011;64590;48.81286795;9.14184224;2023-03-01T10:39:10;46.65;;;22.85;;
215;SDS011;64590;48.81286795;9.14184224;2023-03-01T10:41:40;45.60;;;22.33;;
215;SDS011;64590;48.81286795;9.14184224;2023-03-01T10:44:34;46.67;;;22.38;;
215;SDS011;64590;48.81286795;9.14184224;2023-03-01T10:47:03;43.80;;;22.25;;
215;SDS011;64590;48.81286795;9.14184224;2023-03-01T10:49:31;47.40;;;22.05;;
215;SDS011;64590;48.81286795;9.14184224;2023-03-01T10:52:11;47.75;;;21.73;;
215;SDS011;64590;48.81286795;9.14184224;2023-03-01T10:54:50;51.03;;;22.92;;
215;SDS011;64590;48.81286795;9.14184224;2023-03-01T10:57:30;48.10;;;21.75;;
215;SDS011;64590;48.81286795;9.14184224;2023-03-01T11:00:10;45.33;;;21.50;;
215;SDS011;64590;48.81286795;9.14184224;2023-03-01T11:02:45;40.97;;;21.08;;
215;SDS011;64590;48.81286795;9.14184224;2023-03-01T11:05:18;48.08;;;22.10;;
215;SDS011;64590;48.81286795;9.14184224;2023-03-01T11:07:49;43.40;;;21.10;;
215;SDS011;64590;48.81286795;9.14184224;2023-03-01T11:10:18;43.83;;;21.85;;
215;SDS011;64590;48.81286795;9.14184224;2023-03-01T11:12:46;39.67;;;21.08;;
215;SDS011;64590;48.81286795;9.14184224;2023-03-01T11:15:20;43.58;;;21.73;;
215;SDS011;64590;48.81286795;9.14184224;2023-03-01T11:17:50;44.80;;;22.45;;
215;SDS011;64590;48.81286795;9.14184224;2023-03-01T11:20:20;46.55;;;22.80;;
215;SDS011;64590;48.81286795;9.14184224;2023-03-01T11:22:52;41.67;;;21.55;;
215;SDS011;64590;48.81286795;9.14184224;2023-03-01T11:25:21;47.15;;;21.02;;
215;SDS011;64590;48.81286795;9.14184224;2023-03-01T11:27:51;40.28;;;20.90;;
215;SDS011;64590;48.81286795;9.14184224;2023-03-01T11:30:20;43.60;;;21.45;;
215;SDS011;64590;48.81286795;9.14184224;2023-03-01T11:32:52;39.13;;;21.10;;
215;SDS011;64590;48.81286795;9.14184224;2023-03-01T11:35:28;41.17;;;21.10;;
215;SDS011;64590;48.81286795;9.14184224;2023-03-01T11:38:03;43.85;;;21.23;;
215;SDS011;64590;48.81286795;9.14184224;2023-03-01T11:40:39;39.63;;;19.90;;
215;SDS011;64590;48.81286795;9.14184224;2023-03-01T11:43:12;40.85;;;20.35;;
215;SDS011;64590;48.81286795;9.14184224;2023-03-01T11:45:47;38.08;;;21.30;;
215;SDS011;64590;48.81286795;9.14184224;2023-03-01T11:48:28;38.45;;;20.20;;
215;SDS011;64590;48.81286795;9.14184224;2023-03-01T11:51:07;40.65;;;20.27;;
215;SDS011;64590;48.81286795;9.14184224;2023-03-01T11:53:50;38.47;;;19.63;;
215;SDS011;64590;48.81286795;9.14184224;2023-03-01T11:56:28;39.35;;;19.85;;
215;SDS011;64590;48.81286795;9.14184224;2023-03-01T11:59:08;40.92;;;20.10;;
215;SDS011;64590;48.81286795;9.14184224;2023-03-01T12:01:51;39.03;;;19.73;;
215;SDS011;64590;48.81286795;9.14184224;2023-03-01T12:04:51;37.42;;;19.83;;
215;SDS011;64590;48.81286795;9.14184224;2023-03-01T12:07:34;35.55;;;19.17;;
215;SDS011;64590;48.81286795;9.14184224;2023-03-01T12:13:12;36.95;;;18.63;;
215;SDS011;64590;48.81286795;9.14184224;2023-03-01T12:18:54;37.63;;;19.63;;
215;SDS011;64590;48.81286795;9.14184224;2023-03-01T12:21:37;34.72;;;19.05;;
215;SDS011;64590;48.81286795;9.14184224;2023-03-01T12:24:19;34.17;;;18.30;;
215;SDS011;64590;48.81286795;9.14184224;2023-03-01T12:27:00;34.70;;;18.23;;
215;SDS011;64590;48.81286795;9.14184224;2023-03-01T12:29:38;36.20;;;19.73;;
215;SDS011;64590;48.81286795;9.14184224;2023-03-01T12:32:22;34.67;;;17.93;;
215;SDS011;64590;48.81286795;9.14184224;2023-03-01T12:38:22;38.03;;;18.50;;
215;SDS011;64590;48.81286795;9.14184224;2023-03-01T12:41:04;43.13;;;19.23;;
215;SDS011;64590;48.81286795;9.14184224;2023-03-01T12:43:47;36.30;;;19.37;;
215;SDS011;64590;48.81286795;9.14184224;2023-03-01T12:46:34;38.00;;;20.20;;
215;SDS011;64590;48.81286795;9.14184224;2023-03-01T12:49:13;37.17;;;19.47;;
215;SDS011;64590;48.81286795;9.14184224;2023-03-01T12:51:43;38.27;;;20.63;;
215;SDS011;64590;48.81286795;9.14184224;2023-03-01T12:54:15;33.73;;;17.60;;
215;SDS011;64590;48.81286795;9.14184224;2023-03-01T12:56:48;36.07;;;19.10;;
215;SDS011;64590;48.81286795;9.14184224;2023-03-01T12:59:18;37.47;;;19.10;;
215;SDS011;64590;48.81286795;9.14184224;2023-03-01T13:01:52;34.90;;;19.60;;
215;SDS011;64590;48.81286795;9.14184224;2023-03-01T13:04:35;35.30;;;18.60;;
215;SDS011;64590;48.81286795;9.14184224;2023-03-01T13:07:16;34.03;;;18.10;;
215;SDS011;64590;48.81286795;9.14184224;2023-03-01T13:09:51;37.43;;;19.13;;
215;SDS011;64590;48.81286795;9.14184224;2023-03-01T13:12:47;34.60;;;18.90;;
215;SDS011;64590;48.81286795;9.14184224;2023-03-01T13:15:28;40.90;;;20.17;;
215;SDS011;64590;48.81286795;9.14184224;2023-03-01T13:17:57;37.57;;;19.33;;
215;SDS011;64590;48.81286795;9.14184224;2023-03-01T13:20:25;36.73;;;19.53;;